sensor_id;sensor_type;location;lat;lon;timestamp;P1;durP1;ratioP1;P2;durP2;ratioP2
9465;SDS011;4771;48.726;9.006;2022-10-19T00:00:22;14.00;;;8.98;;
9465;SDS011;4771;48.726;9.006;2022-10-19T00:02:49;10.88;;;8.50;;
9465;SDS011;4771;48.726;9.006;2022-10-19T00:05:18;9.98;;;7.40;;
9465;SDS011;4771;48.726;9.006;2022-10-19T00:07:44;16.60;;;7.50;;
9465;SDS011;4771;48.726;9.006;2022-10-19T00:10:11;9.23;;;7.28;;
9465;SDS011;4771;48.726;9.006;2022-10-19T00:12:38;11.00;;;8.48;;
9465;SDS011;4771;48.726;9.006;2022-10-19T00:15:06;11.30;;;8.30;;
9465;SDS011;4771;48.726;9.006;2022-10-19T00:17:33;22.02;;;9.23;;
9465;SDS011;4771;48.726;9.006;2022-10-19T00:20:00;13.93;;;9.38;;
9465;SDS011;4771;48.726;9.006;2022-10-19T00:22:28;13.48;;;10.10;;
9465;SDS011;4771;48.726;9.006;2022-10-19T00:24:55;16.08;;;10.07;;
9465;SDS011;4771;48.726;9.006;2022-10-19T00:27:22;22.50;;;11.10;;
9465;SDS011;4771;48.726;9.006;2022-10-19T00:29:49;16.25;;;10.93;;
9465;SDS011;4771;48.726;9.006;2022-10-19T00:32:16;19.33;;;10.88;;
9465;SDS011;4771;48.726;9.006;2022-10-19T00:34:43;17.80;;;10.55;;
9465;SDS011;4771;48.726;9.006;2022-10-19T00:37:10;16.60;;;11.85;;
9465;SDS011;4771;48.726;9.006;2022-10-19T00:39:38;15.73;;;9.43;;
9465;SDS011;4771;48.726;9.006;2022-10-19T00:42:08;11.60;;;9.25;;
9465;SDS011;4771;48.726;9.006;2022-10-19T00:47:23;16.77;;;9.65;;
9465;SDS011;4771;48.726;9.006;2022-10-19T00:49:50;16.73;;;8.63;;
9465;SDS011;4771;48.726;9.006;2022-10-19T00:52:20;13.18;;;9.20;;
9465;SDS011;4771;48.726;9.006;2022-10-19T00:54:50;11.23;;;8.35;;
9465;SDS011;4771;48.726;9.006;2022-10-19T00:57:19;10.50;;;8.13;;
9465;SDS011;4771;48.726;9.006;2022-10-19T00:59:46;13.27;;;8.35;;
9465;SDS011;4771;48.726;9.006;2022-10-19T01:02:13;12.13;;;8.80;;
9465;SDS011;4771;48.726;9.006;2022-10-19T01:04:48;14.18;;;8.45;;
9465;SDS011;4771;48.726;9.006;2022-10-19T01:07:17;17.13;;;9.02;;
9465;SDS011;4771;48.726;9.006;2022-10-19T01:09:44;13.95;;;9.10;;
9465;SDS011;4771;48.726;9.006;2022-10-19T01:12:17;16.40;;;9.50;;
9465;SDS011;4771;48.726;9.006;2022-10-19T01:14:59;16.25;;;11.38;;
9465;SDS011;4771;48.726;9.006;2022-10-19T01:17:38;17.08;;;11.02;;
9465;SDS011;4771;48.726;9.006;2022-10-19T01:20:31;15.35;;;11.23;;
9465;SDS011;4771;48.726;9.006;2022-10-19T01:23:24;17.33;;;11.07;;
9465;SDS011;4771;48.726;9.006;2022-10-19T01:26:07;17.23;;;11.32;;
9465;SDS011;4771;48.726;9.006;2022-10-19T01:28:44;15.95;;;11.68;;
9465;SDS011;4771;48.726;9.006;2022-10-19T01:31:24;15.10;;;10.48;;
9465;SDS011;4771;48.726;9.006;2022-10-19T01:33:57;17.75;;;10.43;;
9465;SDS011;4771;48.726;9.006;2022-10-19T01:36:30;17.20;;;10.00;;
9465;SDS011;4771;48.726;9.006;2022-10-19T01:39:04;15.75;;;9.88;;
9465;SDS011;4771;48.726;9.006;2022-10-19T01:41:37;14.20;;;10.40;;
9465;SDS011;4771;48.726;9.006;2022-10-19T01:44:12;11.60;;;9.55;;
9465;SDS011;4771;48.726;9.006;2022-10-19T01:46:43;15.70;;;9.98;;
9465;SDS011;4771;48.726;9.006;2022-10-19T01:49:16;16.70;;;9.93;;
9465;SDS011;4771;48.726;9.006;2022-10-19T01:51:49;17.88;;;11.02;;
9465;SDS011;4771;48.726;9.006;2022-10-19T01:54:19;19.67;;;10.98;;
9465;SDS011;4771;48.726;9.006;2022-10-19T01:56:48;17.48;;;11.55;;
9465;SDS011;4771;48.726;9.006;2022-10-19T01:59:17;17.30;;;10.68;;
9465;SDS011;4771;48.726;9.006;2022-10-19T02:01:47;18.27;;;11.40;;
9465;SDS011;4771;48.726;9.006;2022-10-19T02:04:17;17.13;;;11.15;;
9465;SDS011;4771;48.726;9.006;2022-10-19T02:06:47;16.98;;;11.43;;
9465;SDS011;4771;48.726;9.006;2022-10-19T02:09:15;19.40;;;11.50;;
9465;SDS011;4771;48.726;9.006;2022-10-19T02:11:44;16.98;;;11.48;;
9465;SDS011;4771;48.726;9.006;2022-10-19T02:14:15;20.65;;;12.60;;
9465;SDS011;4771;48.726;9.006;2022-10-19T02:16:44;17.83;;;11.93;;
9465;SDS011;4771;48.726;9.006;2022-10-19T02:19:17;19.52;;;10.70;;
9465;SDS011;4771;48.726;9.006;2022-10-19T02:21:45;24.10;;;13.85;;
9465;SDS011;4771;48.726;9.006;2022-10-19T02:24:12;46.78;;;15.32;;
9465;SDS011;4771;48.726;9.006;2022-10-19T02:26:39;29.85;;;16.13;;
9465;SDS011;4771;48.726;9.006;2022-10-19T02:29:07;48.97;;;16.80;;
9465;SDS011;4771;48.726;9.006;2022-10-19T02:31:36;34.63;;;16.75;;
9465;SDS011;4771;48.726;9.006;2022-10-19T02:34:05;199.02;;;14.27;;
9465;SDS011;4771;48.726;9.006;2022-10-19T02:36:32;231.15;;;18.60;;
9465;SDS011;4771;48.726;9.006;2022-10-19T02:38:59;141.00;;;16.75;;
9465;SDS011;4771;48.726;9.006;2022-10-19T02:41:28;176.10;;;17.67;;
9465;SDS011;4771;48.726;9.006;2022-10-19T02:44:01;231.07;;;17.60;;
9465;SDS011;4771;48.726;9.006;2022-10-19T02:46:33;93.28;;;14.38;;
9465;SDS011;4771;48.726;9.006;2022-10-19T02:49:05;175.07;;;15.10;;
9465;SDS011;4771;48.726;9.006;2022-10-19T02:51:35;241.45;;;16.05;;
9465;SDS011;4771;48.726;9.006;2022-10-19T02:54:04;204.23;;;16.15;;
9465;SDS011;4771;48.726;9.006;2022-10-19T02:56:33;369.90;;;17.70;;
9465;SDS011;4771;48.726;9.006;2022-10-19T02:59:00;197.57;;;16.15;;
9465;SDS011;4771;48.726;9.006;2022-10-19T03:01:27;212.57;;;16.00;;
9465;SDS011;4771;48.726;9.006;2022-10-19T03:03:54;131.00;;;15.93;;
9465;SDS011;4771;48.726;9.006;2022-10-19T03:06:23;51.65;;;14.88;;
9465;SDS011;4771;48.726;9.006;2022-10-19T03:08:50;73.80;;;14.60;;
9465;SDS011;4771;48.726;9.006;2022-10-19T03:11:16;87.65;;;15.30;;
9465;SDS011;4771;48.726;9.006;2022-10-19T03:13:43;171.88;;;16.65;;
9465;SDS011;4771;48.726;9.006;2022-10-19T03:16:11;122.90;;;16.20;;
9465;SDS011;4771;48.726;9.006;2022-10-19T03:18:39;337.48;;;19.52;;
9465;SDS011;4771;48.726;9.006;2022-10-19T03:21:06;58.15;;;15.80;;
9465;SDS011;4771;48.726;9.006;2022-10-19T03:23:36;203.00;;;18.05;;
9465;SDS011;4771;48.726;9.006;2022-10-19T03:26:04;60.22;;;15.95;;
9465;SDS011;4771;48.726;9.006;2022-10-19T03:28:31;34.65;;;15.13;;
9465;SDS011;4771;48.726;9.006;2022-10-19T03:30:58;50.45;;;15.65;;
9465;SDS011;4771;48.726;9.006;2022-10-19T03:33:25;70.03;;;17.27;;
9465;SDS011;4771;48.726;9.006;2022-10-19T03:38:42;44.75;;;15.68;;
9465;SDS011;4771;48.726;9.006;2022-10-19T03:41:09;108.90;;;17.63;;
9465;SDS011;4771;48.726;9.006;2022-10-19T03:43:36;96.95;;;16.88;;
9465;SDS011;4771;48.726;9.006;2022-10-19T03:46:05;64.10;;;15.48;;
9465;SDS011;4771;48.726;9.006;2022-10-19T03:48:32;72.97;;;16.23;;
9465;SDS011;4771;48.726;9.006;2022-10-19T03:51:00;77.72;;;17.42;;
9465;SDS011;4771;48.726;9.006;2022-10-19T03:53:27;37.88;;;17.77;;
9465;SDS011;4771;48.726;9.006;2022-10-19T03:56:00;42.03;;;16.58;;
9465;SDS011;4771;48.726;9.006;2022-10-19T03:58:29;36.75;;;16.45;;
9465;SDS011;4771;48.726;9.006;2022-10-19T04:00:57;38.40;;;17.08;;
9465;SDS011;4771;48.726;9.006;2022-10-19T04:03:24;34.92;;;16.67;;
9465;SDS011;4771;48.726;9.006;2022-10-19T04:05:51;67.63;;;17.58;;
9465;SDS011;4771;48.726;9.006;2022-10-19T04:08:26;171.35;;;19.25;;
9465;SDS011;4771;48.726;9.006;2022-10-19T04:10:56;56.13;;;17.48;;
9465;SDS011;4771;48.726;9.006;2022-10-19T04:13:26;77.90;;;17.33;;
9465;SDS011;4771;48.726;9.006;2022-10-19T04:15:53;140.88;;;19.23;;
9465;SDS011;4771;48.726;9.006;2022-10-19T04:18:20;37.22;;;16.35;;
9465;SDS011;4771;48.726;9.006;2022-10-19T04:20:48;40.95;;;17.98;;
9465;SDS011;4771;48.726;9.006;2022-10-19T04:23:20;70.28;;;16.98;;
9465;SDS011;4771;48.726;9.006;2022-10-19T04:25:47;53.65;;;18.13;;
9465;SDS011;4771;48.726;9.006;2022-10-19T04:28:14;38.45;;;16.73;;
9465;SDS011;4771;48.726;9.006;2022-10-19T04:30:42;32.70;;;17.17;;
9465;SDS011;4771;48.726;9.006;2022-10-19T04:33:09;42.03;;;17.88;;
9465;SDS011;4771;48.726;9.006;2022-10-19T04:35:36;39.78;;;17.90;;
9465;SDS011;4771;48.726;9.006;2022-10-19T04:38:02;35.78;;;17.67;;
9465;SDS011;4771;48.726;9.006;2022-10-19T04:40:29;36.83;;;17.35;;
9465;SDS011;4771;48.726;9.006;2022-10-19T04:42:59;38.25;;;16.05;;
9465;SDS011;4771;48.726;9.006;2022-10-19T04:45:26;35.72;;;16.52;;
9465;SDS011;4771;48.726;9.006;2022-10-19T04:47:54;37.95;;;17.42;;
9465;SDS011;4771;48.726;9.006;2022-10-19T04:50:21;34.60;;;16.65;;
9465;SDS011;4771;48.726;9.006;2022-10-19T04:52:48;33.83;;;16.35;;
9465;SDS011;4771;48.726;9.006;2022-10-19T04:55:15;26.48;;;14.38;;
9465;SDS011;4771;48.726;9.006;2022-10-19T04:57:42;26.73;;;13.45;;
9465;SDS011;4771;48.726;9.006;2022-10-19T05:00:10;29.55;;;13.32;;
9465;SDS011;4771;48.726;9.006;2022-10-19T05:02:41;29.48;;;14.02;;
9465;SDS011;4771;48.726;9.006;2022-10-19T05:05:10;23.75;;;12.80;;
9465;SDS011;4771;48.726;9.006;2022-10-19T05:07:37;23.50;;;12.75;;
9465;SDS011;4771;48.726;9.006;2022-10-19T05:10:04;24.25;;;13.20;;
9465;SDS011;4771;48.726;9.006;2022-10-19T05:12:33;25.73;;;13.00;;
9465;SDS011;4771;48.726;9.006;2022-10-19T05:15:01;27.33;;;14.20;;
9465;SDS011;4771;48.726;9.006;2022-10-19T05:17:28;26.45;;;13.88;;
9465;SDS011;4771;48.726;9.006;2022-10-19T05:19:55;22.55;;;13.35;;
9465;SDS011;4771;48.726;9.006;2022-10-19T05:22:23;24.52;;;12.88;;
9465;SDS011;4771;48.726;9.006;2022-10-19T05:24:50;29.25;;;13.98;;
9465;SDS011;4771;48.726;9.006;2022-10-19T05:27:17;26.77;;;14.10;;
9465;SDS011;4771;48.726;9.006;2022-10-19T05:29:44;23.73;;;13.60;;
9465;SDS011;4771;48.726;9.006;2022-10-19T05:32:11;24.80;;;12.93;;
9465;SDS011;4771;48.726;9.006;2022-10-19T05:34:38;25.17;;;13.38;;
9465;SDS011;4771;48.726;9.006;2022-10-19T05:37:05;26.60;;;13.73;;
9465;SDS011;4771;48.726;9.006;2022-10-19T05:39:33;25.08;;;14.15;;
9465;SDS011;4771;48.726;9.006;2022-10-19T05:42:00;28.85;;;14.75;;
9465;SDS011;4771;48.726;9.006;2022-10-19T05:44:27;29.02;;;14.82;;
9465;SDS011;4771;48.726;9.006;2022-10-19T05:46:54;28.75;;;13.40;;
9465;SDS011;4771;48.726;9.006;2022-10-19T05:49:21;26.40;;;14.02;;
9465;SDS011;4771;48.726;9.006;2022-10-19T05:51:48;29.92;;;14.25;;
9465;SDS011;4771;48.726;9.006;2022-10-19T05:54:15;26.33;;;14.30;;
9465;SDS011;4771;48.726;9.006;2022-10-19T05:56:44;26.40;;;13.52;;
9465;SDS011;4771;48.726;9.006;2022-10-19T05:59:13;26.90;;;13.93;;
9465;SDS011;4771;48.726;9.006;2022-10-19T06:01:41;35.80;;;17.42;;
9465;SDS011;4771;48.726;9.006;2022-10-19T06:04:08;38.78;;;18.23;;
9465;SDS011;4771;48.726;9.006;2022-10-19T06:06:38;36.58;;;18.38;;
9465;SDS011;4771;48.726;9.006;2022-10-19T06:09:05;38.42;;;18.52;;
9465;SDS011;4771;48.726;9.006;2022-10-19T06:11:33;38.10;;;18.10;;
9465;SDS011;4771;48.726;9.006;2022-10-19T06:14:05;29.75;;;15.88;;
9465;SDS011;4771;48.726;9.006;2022-10-19T06:16:34;30.20;;;15.65;;
9465;SDS011;4771;48.726;9.006;2022-10-19T06:19:01;26.10;;;15.68;;
9465;SDS011;4771;48.726;9.006;2022-10-19T06:21:29;30.25;;;16.60;;
9465;SDS011;4771;48.726;9.006;2022-10-19T06:23:57;31.85;;;16.88;;
9465;SDS011;4771;48.726;9.006;2022-10-19T06:26:25;29.95;;;16.35;;
9465;SDS011;4771;48.726;9.006;2022-10-19T06:28:53;29.95;;;15.82;;
9465;SDS011;4771;48.726;9.006;2022-10-19T06:31:23;29.88;;;16.65;;
9465;SDS011;4771;48.726;9.006;2022-10-19T06:33:50;31.17;;;19.65;;
9465;SDS011;4771;48.726;9.006;2022-10-19T06:36:17;32.03;;;21.02;;
9465;SDS011;4771;48.726;9.006;2022-10-19T06:38:46;28.80;;;20.73;;
9465;SDS011;4771;48.726;9.006;2022-10-19T06:41:13;30.63;;;20.27;;
9465;SDS011;4771;48.726;9.006;2022-10-19T06:43:40;29.15;;;19.60;;
9465;SDS011;4771;48.726;9.006;2022-10-19T06:46:10;24.17;;;17.77;;
9465;SDS011;4771;48.726;9.006;2022-10-19T06:48:40;28.38;;;19.73;;
9465;SDS011;4771;48.726;9.006;2022-10-19T06:51:07;28.90;;;19.75;;
9465;SDS011;4771;48.726;9.006;2022-10-19T06:53:34;29.10;;;20.25;;
9465;SDS011;4771;48.726;9.006;2022-10-19T06:56:03;30.75;;;20.13;;
9465;SDS011;4771;48.726;9.006;2022-10-19T06:58:33;29.60;;;21.15;;
9465;SDS011;4771;48.726;9.006;2022-10-19T07:01:02;31.02;;;21.05;;
9465;SDS011;4771;48.726;9.006;2022-10-19T07:03:31;25.92;;;19.27;;
9465;SDS011;4771;48.726;9.006;2022-10-19T07:06:00;24.58;;;17.38;;
9465;SDS011;4771;48.726;9.006;2022-10-19T07:08:29;23.27;;;17.92;;
9465;SDS011;4771;48.726;9.006;2022-10-19T07:10:57;23.25;;;17.35;;
9465;SDS011;4771;48.726;9.006;2022-10-19T07:13:26;23.75;;;17.88;;
9465;SDS011;4771;48.726;9.006;2022-10-19T07:15:55;23.00;;;16.92;;
9465;SDS011;4771;48.726;9.006;2022-10-19T07:18:23;22.70;;;15.77;;
9465;SDS011;4771;48.726;9.006;2022-10-19T07:20:53;20.88;;;15.55;;
9465;SDS011;4771;48.726;9.006;2022-10-19T07:23:22;20.08;;;15.23;;
9465;SDS011;4771;48.726;9.006;2022-10-19T07:25:49;18.90;;;16.02;;
9465;SDS011;4771;48.726;9.006;2022-10-19T07:28:18;18.58;;;15.50;;
9465;SDS011;4771;48.726;9.006;2022-10-19T07:30:45;21.55;;;15.57;;
9465;SDS011;4771;48.726;9.006;2022-10-19T07:33:12;21.95;;;17.15;;
9465;SDS011;4771;48.726;9.006;2022-10-19T07:35:39;22.10;;;16.60;;
9465;SDS011;4771;48.726;9.006;2022-10-19T07:38:06;20.02;;;16.45;;
9465;SDS011;4771;48.726;9.006;2022-10-19T07:40:34;18.90;;;16.10;;
9465;SDS011;4771;48.726;9.006;2022-10-19T07:43:01;21.23;;;16.75;;
9465;SDS011;4771;48.726;9.006;2022-10-19T07:45:28;19.33;;;15.23;;
9465;SDS011;4771;48.726;9.006;2022-10-19T07:47:55;21.95;;;15.27;;
9465;SDS011;4771;48.726;9.006;2022-10-19T07:50:23;23.60;;;15.43;;
9465;SDS011;4771;48.726;9.006;2022-10-19T07:52:51;19.52;;;15.10;;
9465;SDS011;4771;48.726;9.006;2022-10-19T07:55:18;16.58;;;14.05;;
9465;SDS011;4771;48.726;9.006;2022-10-19T07:57:47;18.30;;;14.73;;
9465;SDS011;4771;48.726;9.006;2022-10-19T08:00:14;15.48;;;13.07;;
9465;SDS011;4771;48.726;9.006;2022-10-19T08:02:42;21.45;;;14.52;;
9465;SDS011;4771;48.726;9.006;2022-10-19T08:05:09;17.13;;;13.07;;
9465;SDS011;4771;48.726;9.006;2022-10-19T08:07:36;16.90;;;13.38;;
9465;SDS011;4771;48.726;9.006;2022-10-19T08:10:03;16.83;;;13.02;;
9465;SDS011;4771;48.726;9.006;2022-10-19T08:12:30;12.15;;;10.85;;
9465;SDS011;4771;48.726;9.006;2022-10-19T08:15:01;15.20;;;11.68;;
9465;SDS011;4771;48.726;9.006;2022-10-19T08:17:31;13.85;;;11.40;;
9465;SDS011;4771;48.726;9.006;2022-10-19T08:19:59;14.32;;;12.00;;
9465;SDS011;4771;48.726;9.006;2022-10-19T08:22:26;15.70;;;12.32;;
9465;SDS011;4771;48.726;9.006;2022-10-19T08:24:53;15.68;;;11.63;;
9465;SDS011;4771;48.726;9.006;2022-10-19T08:27:20;15.32;;;10.90;;
9465;SDS011;4771;48.726;9.006;2022-10-19T08:29:47;12.43;;;11.13;;
9465;SDS011;4771;48.726;9.006;2022-10-19T08:32:17;14.43;;;10.45;;
9465;SDS011;4771;48.726;9.006;2022-10-19T08:34:44;13.55;;;10.60;;
9465;SDS011;4771;48.726;9.006;2022-10-19T08:37:10;14.90;;;10.57;;
9465;SDS011;4771;48.726;9.006;2022-10-19T08:39:37;14.52;;;10.00;;
9465;SDS011;4771;48.726;9.006;2022-10-19T08:42:05;12.15;;;9.73;;
9465;SDS011;4771;48.726;9.006;2022-10-19T08:47:52;16.58;;;11.75;;
9465;SDS011;4771;48.726;9.006;2022-10-19T08:50:35;13.82;;;11.32;;
9465;SDS011;4771;48.726;9.006;2022-10-19T08:53:05;13.00;;;10.05;;
9465;SDS011;4771;48.726;9.006;2022-10-19T08:55:42;14.90;;;9.75;;
9465;SDS011;4771;48.726;9.006;2022-10-19T08:58:19;11.55;;;10.02;;
9465;SDS011;4771;48.726;9.006;2022-10-19T09:00:58;12.50;;;10.38;;
9465;SDS011;4771;48.726;9.006;2022-10-19T09:03:34;14.23;;;10.77;;
9465;SDS011;4771;48.726;9.006;2022-10-19T09:06:11;11.15;;;9.52;;
9465;SDS011;4771;48.726;9.006;2022-10-19T09:08:46;12.30;;;10.25;;
9465;SDS011;4771;48.726;9.006;2022-10-19T09:11:15;14.07;;;9.75;;
9465;SDS011;4771;48.726;9.006;2022-10-19T09:13:46;13.52;;;9.57;;
9465;SDS011;4771;48.726;9.006;2022-10-19T09:16:15;12.98;;;9.90;;
9465;SDS011;4771;48.726;9.006;2022-10-19T09:18:44;14.05;;;10.38;;
9465;SDS011;4771;48.726;9.006;2022-10-19T09:21:13;13.10;;;10.35;;
9465;SDS011;4771;48.726;9.006;2022-10-19T09:23:46;11.57;;;10.15;;
9465;SDS011;4771;48.726;9.006;2022-10-19T09:26:21;14.02;;;10.63;;
9465;SDS011;4771;48.726;9.006;2022-10-19T09:28:52;15.15;;;11.85;;
9465;SDS011;4771;48.726;9.006;2022-10-19T09:31:24;15.93;;;11.40;;
9465;SDS011;4771;48.726;9.006;2022-10-19T09:33:58;17.70;;;11.95;;
9465;SDS011;4771;48.726;9.006;2022-10-19T09:36:32;17.35;;;12.07;;
9465;SDS011;4771;48.726;9.006;2022-10-19T09:39:03;14.07;;;11.50;;
9465;SDS011;4771;48.726;9.006;2022-10-19T09:41:30;12.30;;;11.00;;
9465;SDS011;4771;48.726;9.006;2022-10-19T09:43:58;15.68;;;12.60;;
9465;SDS011;4771;48.726;9.006;2022-10-19T09:46:27;14.13;;;12.23;;
9465;SDS011;4771;48.726;9.006;2022-10-19T09:49:04;14.73;;;12.23;;
9465;SDS011;4771;48.726;9.006;2022-10-19T09:51:37;15.60;;;11.80;;
9465;SDS011;4771;48.726;9.006;2022-10-19T09:54:21;15.88;;;11.75;;
9465;SDS011;4771;48.726;9.006;2022-10-19T09:56:54;13.15;;;11.80;;
9465;SDS011;4771;48.726;9.006;2022-10-19T09:59:22;14.50;;;11.50;;
9465;SDS011;4771;48.726;9.006;2022-10-19T10:02:12;13.07;;;10.10;;
9465;SDS011;4771;48.726;9.006;2022-10-19T10:04:45;15.15;;;11.93;;
9465;SDS011;4771;48.726;9.006;2022-10-19T10:07:13;13.45;;;11.50;;
9465;SDS011;4771;48.726;9.006;2022-10-19T10:09:42;12.13;;;10.80;;
9465;SDS011;4771;48.726;9.006;2022-10-19T10:12:10;12.60;;;10.40;;
9465;SDS011;4771;48.726;9.006;2022-10-19T10:14:40;13.90;;;9.57;;
9465;SDS011;4771;48.726;9.006;2022-10-19T10:17:11;11.82;;;9.90;;
9465;SDS011;4771;48.726;9.006;2022-10-19T10:19:50;10.20;;;9.10;;
9465;SDS011;4771;48.726;9.006;2022-10-19T10:22:28;12.55;;;9.32;;
9465;SDS011;4771;48.726;9.006;2022-10-19T10:24:56;10.13;;;9.02;;
9465;SDS011;4771;48.726;9.006;2022-10-19T10:27:25;9.85;;;7.55;;
9465;SDS011;4771;48.726;9.006;2022-10-19T10:29:55;10.00;;;7.78;;
9465;SDS011;4771;48.726;9.006;2022-10-19T10:32:22;10.50;;;8.13;;
9465;SDS011;4771;48.726;9.006;2022-10-19T10:34:56;11.90;;;8.07;;
9465;SDS011;4771;48.726;9.006;2022-10-19T10:37:27;8.38;;;7.55;;
9465;SDS011;4771;48.726;9.006;2022-10-19T10:40:00;10.05;;;8.07;;
9465;SDS011;4771;48.726;9.006;2022-10-19T10:42:29;10.98;;;8.50;;
9465;SDS011;4771;48.726;9.006;2022-10-19T10:45:00;12.23;;;8.73;;
9465;SDS011;4771;48.726;9.006;2022-10-19T10:47:28;11.57;;;8.57;;
9465;SDS011;4771;48.726;9.006;2022-10-19T10:49:57;13.13;;;8.80;;
9465;SDS011;4771;48.726;9.006;2022-10-19T10:52:28;10.60;;;7.85;;
9465;SDS011;4771;48.726;9.006;2022-10-19T10:54:56;10.02;;;8.98;;
9465;SDS011;4771;48.726;9.006;2022-10-19T10:57:25;9.40;;;7.72;;
9465;SDS011;4771;48.726;9.006;2022-10-19T10:59:56;11.45;;;8.48;;
9465;SDS011;4771;48.726;9.006;2022-10-19T11:02:34;10.77;;;9.18;;
9465;SDS011;4771;48.726;9.006;2022-10-19T11:05:09;14.48;;;9.40;;
9465;SDS011;4771;48.726;9.006;2022-10-19T11:07:40;11.45;;;9.55;;
9465;SDS011;4771;48.726;9.006;2022-10-19T11:10:19;10.63;;;8.77;;
9465;SDS011;4771;48.726;9.006;2022-10-19T11:12:52;7.90;;;6.97;;
9465;SDS011;4771;48.726;9.006;2022-10-19T11:15:27;10.27;;;5.80;;
9465;SDS011;4771;48.726;9.006;2022-10-19T11:18:02;6.05;;;5.45;;
9465;SDS011;4771;48.726;9.006;2022-10-19T11:20:40;6.13;;;5.00;;
9465;SDS011;4771;48.726;9.006;2022-10-19T11:23:13;5.03;;;4.50;;
9465;SDS011;4771;48.726;9.006;2022-10-19T11:25:47;7.07;;;4.22;;
9465;SDS011;4771;48.726;9.006;2022-10-19T11:28:25;4.40;;;3.60;;
9465;SDS011;4771;48.726;9.006;2022-10-19T11:31:02;4.60;;;3.85;;
9465;SDS011;4771;48.726;9.006;2022-10-19T11:33:42;3.90;;;3.50;;
9465;SDS011;4771;48.726;9.006;2022-10-19T11:36:24;4.90;;;3.40;;
9465;SDS011;4771;48.726;9.006;2022-10-19T11:39:04;4.22;;;3.15;;
9465;SDS011;4771;48.726;9.006;2022-10-19T11:41:56;3.95;;;3.30;;
9465;SDS011;4771;48.726;9.006;2022-10-19T11:44:29;5.05;;;3.67;;
9465;SDS011;4771;48.726;9.006;2022-10-19T11:47:14;3.88;;;3.42;;
9465;SDS011;4771;48.726;9.006;2022-10-19T11:49:54;5.18;;;4.03;;
9465;SDS011;4771;48.726;9.006;2022-10-19T11:52:29;6.53;;;3.90;;
9465;SDS011;4771;48.726;9.006;2022-10-19T11:55:11;6.93;;;4.63;;
9465;SDS011;4771;48.726;9.006;2022-10-19T11:57:44;5.70;;;3.63;;
9465;SDS011;4771;48.726;9.006;2022-10-19T12:00:17;4.18;;;3.78;;
9465;SDS011;4771;48.726;9.006;2022-10-19T12:02:53;4.43;;;3.80;;
9465;SDS011;4771;48.726;9.006;2022-10-19T12:05:42;5.07;;;4.10;;
9465;SDS011;4771;48.726;9.006;2022-10-19T12:08:24;6.40;;;4.50;;
9465;SDS011;4771;48.726;9.006;2022-10-19T12:11:03;5.07;;;4.47;;
9465;SDS011;4771;48.726;9.006;2022-10-19T12:13:45;4.63;;;3.90;;
9465;SDS011;4771;48.726;9.006;2022-10-19T12:16:15;4.50;;;4.10;;
9465;SDS011;4771;48.726;9.006;2022-10-19T12:18:45;5.40;;;4.50;;
9465;SDS011;4771;48.726;9.006;2022-10-19T12:21:18;5.97;;;4.75;;
9465;SDS011;4771;48.726;9.006;2022-10-19T12:23:49;4.63;;;4.13;;
9465;SDS011;4771;48.726;9.006;2022-10-19T12:26:17;6.45;;;4.53;;
9465;SDS011;4771;48.726;9.006;2022-10-19T12:28:46;6.22;;;4.35;;
9465;SDS011;4771;48.726;9.006;2022-10-19T12:31:17;4.65;;;3.95;;
9465;SDS011;4771;48.726;9.006;2022-10-19T12:33:45;7.22;;;4.10;;
9465;SDS011;4771;48.726;9.006;2022-10-19T12:36:25;5.28;;;4.78;;
9465;SDS011;4771;48.726;9.006;2022-10-19T12:39:03;6.60;;;4.78;;
9465;SDS011;4771;48.726;9.006;2022-10-19T12:41:38;6.82;;;4.68;;
9465;SDS011;4771;48.726;9.006;2022-10-19T12:44:12;6.00;;;5.40;;
9465;SDS011;4771;48.726;9.006;2022-10-19T12:46:58;7.38;;;4.80;;
9465;SDS011;4771;48.726;9.006;2022-10-19T12:49:35;7.18;;;5.22;;
9465;SDS011;4771;48.726;9.006;2022-10-19T12:52:09;5.78;;;5.18;;
9465;SDS011;4771;48.726;9.006;2022-10-19T12:54:38;5.20;;;4.50;;
9465;SDS011;4771;48.726;9.006;2022-10-19T12:57:25;4.75;;;4.22;;
9465;SDS011;4771;48.726;9.006;2022-10-19T12:59:57;6.90;;;4.78;;
9465;SDS011;4771;48.726;9.006;2022-10-19T13:02:27;5.68;;;5.05;;
9465;SDS011;4771;48.726;9.006;2022-10-19T13:04:56;4.97;;;4.47;;
9465;SDS011;4771;48.726;9.006;2022-10-19T13:07:24;5.97;;;5.35;;
9465;SDS011;4771;48.726;9.006;2022-10-19T13:09:58;7.53;;;5.80;;
9465;SDS011;4771;48.726;9.006;2022-10-19T13:12:43;7.72;;;5.82;;
9465;SDS011;4771;48.726;9.006;2022-10-19T13:25:17;7.75;;;5.80;;
9465;SDS011;4771;48.726;9.006;2022-10-19T13:27:51;7.35;;;5.97;;
9465;SDS011;4771;48.726;9.006;2022-10-19T13:33:38;5.60;;;5.10;;
9465;SDS011;4771;48.726;9.006;2022-10-19T13:36:12;5.80;;;5.15;;
9465;SDS011;4771;48.726;9.006;2022-10-19T13:38:41;7.72;;;5.03;;
9465;SDS011;4771;48.726;9.006;2022-10-19T13:41:18;5.32;;;4.35;;
9465;SDS011;4771;48.726;9.006;2022-10-19T13:46:45;7.78;;;5.47;;
9465;SDS011;4771;48.726;9.006;2022-10-19T13:49:29;5.32;;;4.68;;
9465;SDS011;4771;48.726;9.006;2022-10-19T13:52:20;5.30;;;4.80;;
9465;SDS011;4771;48.726;9.006;2022-10-19T13:58:24;5.70;;;4.93;;
9465;SDS011;4771;48.726;9.006;2022-10-19T14:01:15;7.35;;;5.28;;
9465;SDS011;4771;48.726;9.006;2022-10-19T14:06:46;5.80;;;5.20;;
9465;SDS011;4771;48.726;9.006;2022-10-19T14:09:31;5.88;;;4.57;;
9465;SDS011;4771;48.726;9.006;2022-10-19T14:12:14;7.18;;;4.80;;
9465;SDS011;4771;48.726;9.006;2022-10-19T14:14:47;7.00;;;5.05;;
9465;SDS011;4771;48.726;9.006;2022-10-19T14:17:18;4.95;;;4.30;;
9465;SDS011;4771;48.726;9.006;2022-10-19T14:19:48;7.72;;;4.50;;
9465;SDS011;4771;48.726;9.006;2022-10-19T14:22:19;10.27;;;6.07;;
9465;SDS011;4771;48.726;9.006;2022-10-19T14:24:50;6.82;;;6.13;;
9465;SDS011;4771;48.726;9.006;2022-10-19T14:27:18;6.57;;;5.97;;
9465;SDS011;4771;48.726;9.006;2022-10-19T14:29:50;13.77;;;8.82;;
9465;SDS011;4771;48.726;9.006;2022-10-19T14:32:20;8.00;;;7.20;;
9465;SDS011;4771;48.726;9.006;2022-10-19T14:34:49;7.00;;;5.25;;
9465;SDS011;4771;48.726;9.006;2022-10-19T14:37:17;5.97;;;5.47;;
9465;SDS011;4771;48.726;9.006;2022-10-19T14:39:56;6.85;;;6.15;;
9465;SDS011;4771;48.726;9.006;2022-10-19T14:42:33;7.13;;;5.07;;
9465;SDS011;4771;48.726;9.006;2022-10-19T14:45:05;5.22;;;4.72;;
9465;SDS011;4771;48.726;9.006;2022-10-19T14:47:37;5.35;;;4.78;;
9465;SDS011;4771;48.726;9.006;2022-10-19T14:50:16;5.18;;;4.53;;
9465;SDS011;4771;48.726;9.006;2022-10-19T14:52:44;6.13;;;4.53;;
9465;SDS011;4771;48.726;9.006;2022-10-19T14:55:15;4.75;;;4.35;;
9465;SDS011;4771;48.726;9.006;2022-10-19T14:57:44;6.38;;;4.03;;
9465;SDS011;4771;48.726;9.006;2022-10-19T15:00:16;6.05;;;4.15;;
9465;SDS011;4771;48.726;9.006;2022-10-19T15:02:45;4.88;;;4.00;;
9465;SDS011;4771;48.726;9.006;2022-10-19T15:05:18;5.07;;;4.18;;
9465;SDS011;4771;48.726;9.006;2022-10-19T15:07:48;5.22;;;4.35;;
9465;SDS011;4771;48.726;9.006;2022-10-19T15:10:17;6.43;;;4.57;;
9465;SDS011;4771;48.726;9.006;2022-10-19T15:12:46;6.68;;;4.43;;
9465;SDS011;4771;48.726;9.006;2022-10-19T15:15:16;7.43;;;4.63;;
9465;SDS011;4771;48.726;9.006;2022-10-19T15:17:49;5.22;;;4.70;;
9465;SDS011;4771;48.726;9.006;2022-10-19T15:20:25;7.45;;;4.90;;
9465;SDS011;4771;48.726;9.006;2022-10-19T15:22:54;8.18;;;4.57;;
9465;SDS011;4771;48.726;9.006;2022-10-19T15:25:30;6.40;;;5.47;;
9465;SDS011;4771;48.726;9.006;2022-10-19T15:28:19;5.45;;;4.75;;
9465;SDS011;4771;48.726;9.006;2022-10-19T15:30:58;5.57;;;4.57;;
9465;SDS011;4771;48.726;9.006;2022-10-19T15:33:26;5.20;;;4.72;;
9465;SDS011;4771;48.726;9.006;2022-10-19T15:36:02;5.40;;;4.90;;
9465;SDS011;4771;48.726;9.006;2022-10-19T15:38:32;6.03;;;4.72;;
9465;SDS011;4771;48.726;9.006;2022-10-19T15:41:00;5.07;;;4.57;;
9465;SDS011;4771;48.726;9.006;2022-10-19T15:43:33;8.15;;;4.65;;
9465;SDS011;4771;48.726;9.006;2022-10-19T15:46:04;5.75;;;4.97;;
9465;SDS011;4771;48.726;9.006;2022-10-19T15:48:42;5.72;;;4.60;;